Main page
METAR-TAF:

METAR-TAF

Airports :

Isle of Man Airport

Isle of Man,

latitude: 54-05N, longitude: 004-38W, elevation: 17 m

Current weather observation

The report was made 11 minutes ago, at 11:20 UTC
Wind 17 kt from the North
Temperature 8°C
Humidity 71%
Pressure 1013 hPa
Visibility 10 km or more
Few clouds at a height of 2500 ft

METAR: EGNS 151120Z 01017KT 9999 FEW025 08/03 Q1013 NOSIG

Time: 11:31 (11:31 UTC)

Forecast

The report was made 3 hours and 31 minutes ago, at 08:00 UTC
Forecast valid from 15 at 09 UTC to 15 at 18 UTC
Wind 15 kt from the North
Visibility 10 km or more
Few clouds at a height of 2500 ft

TAF: EGNS 150800Z 1509/1518 01015KT 9999 FEW025

Weather observations and forecasts of more than 4000 airports (METAR and TAF reports).

The available stations are represented by yellow and red dots on the map.

Hover mouse over dot to see the name of the station.

Then click to see weather observations and forecasts.

To change the map : click on the green buttons with a black cross to zoom in, on the green button with a dash to zoom out, or on the green arrows for adjacent maps.


METAR-TAF: